sensor_id;sensor_type;location;lat;lon;timestamp;P1;durP1;ratioP1;P2;durP2;ratioP2
74245;SDS011;62601;51.044;13.788;2023-03-14T00:03:30;1.75;;;1.38;;
74245;SDS011;62601;51.044;13.788;2023-03-14T00:05:51;1.40;;;1.30;;
74245;SDS011;62601;51.044;13.788;2023-03-14T00:08:12;2.17;;;1.42;;
74245;SDS011;62601;51.044;13.788;2023-03-14T00:10:32;1.50;;;1.40;;
74245;SDS011;62601;51.044;13.788;2023-03-14T00:12:52;1.67;;;1.48;;
74245;SDS011;62601;51.044;13.788;2023-03-14T00:15:12;2.15;;;1.42;;
74245;SDS011;62601;51.044;13.788;2023-03-14T00:17:33;1.92;;;1.52;;
74245;SDS011;62601;51.044;13.788;2023-03-14T00:19:53;1.40;;;1.27;;
74245;SDS011;62601;51.044;13.788;2023-03-14T00:22:14;1.70;;;1.60;;
74245;SDS011;62601;51.044;13.788;2023-03-14T00:24:34;1.50;;;1.40;;
74245;SDS011;62601;51.044;13.788;2023-03-14T00:26:55;1.70;;;1.08;;
74245;SDS011;62601;51.044;13.788;2023-03-14T00:29:16;1.20;;;1.10;;
74245;SDS011;62601;51.044;13.788;2023-03-14T00:31:36;1.73;;;1.60;;
74245;SDS011;62601;51.044;13.788;2023-03-14T00:33:56;2.03;;;1.40;;
74245;SDS011;62601;51.044;13.788;2023-03-14T00:36:16;1.30;;;1.20;;
74245;SDS011;62601;51.044;13.788;2023-03-14T00:38:38;2.13;;;1.85;;
74245;SDS011;62601;51.044;13.788;2023-03-14T00:40:59;1.85;;;1.75;;
74245;SDS011;62601;51.044;13.788;2023-03-14T00:43:22;2.90;;;1.80;;
74245;SDS011;62601;51.044;13.788;2023-03-14T00:45:45;2.10;;;2.00;;
74245;SDS011;62601;51.044;13.788;2023-03-14T00:48:05;2.30;;;2.10;;
74245;SDS011;62601;51.044;13.788;2023-03-14T00:50:25;2.78;;;2.33;;
74245;SDS011;62601;51.044;13.788;2023-03-14T00:52:45;2.30;;;2.10;;
74245;SDS011;62601;51.044;13.788;2023-03-14T00:55:06;2.40;;;2.20;;
74245;SDS011;62601;51.044;13.788;2023-03-14T00:57:27;2.97;;;2.17;;
74245;SDS011;62601;51.044;13.788;2023-03-14T00:59:47;4.18;;;2.25;;
74245;SDS011;62601;51.044;13.788;2023-03-14T01:02:10;2.55;;;2.35;;
74245;SDS011;62601;51.044;13.788;2023-03-14T01:04:31;2.28;;;2.08;;
74245;SDS011;62601;51.044;13.788;2023-03-14T01:06:52;2.80;;;2.60;;
74245;SDS011;62601;51.044;13.788;2023-03-14T01:09:12;3.95;;;2.60;;
74245;SDS011;62601;51.044;13.788;2023-03-14T01:11:34;2.70;;;2.47;;
74245;SDS011;62601;51.044;13.788;2023-03-14T01:13:54;2.50;;;2.35;;
74245;SDS011;62601;51.044;13.788;2023-03-14T01:16:15;4.53;;;3.00;;
74245;SDS011;62601;51.044;13.788;2023-03-14T01:18:35;3.00;;;2.72;;
74245;SDS011;62601;51.044;13.788;2023-03-14T01:20:56;3.00;;;2.80;;
74245;SDS011;62601;51.044;13.788;2023-03-14T01:23:16;3.58;;;3.28;;
74245;SDS011;62601;51.044;13.788;2023-03-14T01:25:44;4.53;;;3.28;;
74245;SDS011;62601;51.044;13.788;2023-03-14T01:28:04;3.88;;;3.53;;
74245;SDS011;62601;51.044;13.788;2023-03-14T01:30:25;3.40;;;3.20;;
74245;SDS011;62601;51.044;13.788;2023-03-14T01:32:45;3.35;;;3.15;;
74245;SDS011;62601;51.044;13.788;2023-03-14T01:35:05;3.90;;;3.60;;
74245;SDS011;62601;51.044;13.788;2023-03-14T01:37:25;3.85;;;3.55;;
74245;SDS011;62601;51.044;13.788;2023-03-14T01:39:47;3.95;;;3.40;;
74245;SDS011;62601;51.044;13.788;2023-03-14T01:42:07;5.22;;;3.22;;
74245;SDS011;62601;51.044;13.788;2023-03-14T01:44:27;3.50;;;3.20;;
74245;SDS011;62601;51.044;13.788;2023-03-14T01:46:48;3.70;;;3.40;;
74245;SDS011;62601;51.044;13.788;2023-03-14T01:49:15;3.40;;;3.20;;
74245;SDS011;62601;51.044;13.788;2023-03-14T01:54:19;3.30;;;3.00;;
74245;SDS011;62601;51.044;13.788;2023-03-14T01:56:40;3.10;;;2.80;;
74245;SDS011;62601;51.044;13.788;2023-03-14T01:59:02;3.40;;;3.10;;
74245;SDS011;62601;51.044;13.788;2023-03-14T02:01:24;3.22;;;2.92;;
74245;SDS011;62601;51.044;13.788;2023-03-14T02:03:56;3.05;;;2.75;;
74245;SDS011;62601;51.044;13.788;2023-03-14T02:06:17;2.90;;;2.70;;
74245;SDS011;62601;51.044;13.788;2023-03-14T02:08:40;3.25;;;3.05;;
74245;SDS011;62601;51.044;13.788;2023-03-14T02:11:00;3.35;;;3.05;;
74245;SDS011;62601;51.044;13.788;2023-03-14T02:13:22;3.30;;;3.03;;
74245;SDS011;62601;51.044;13.788;2023-03-14T02:15:42;3.10;;;2.90;;
74245;SDS011;62601;51.044;13.788;2023-03-14T02:18:03;3.25;;;3.05;;
74245;SDS011;62601;51.044;13.788;2023-03-14T02:20:33;3.60;;;3.30;;
74245;SDS011;62601;51.044;13.788;2023-03-14T02:22:55;3.10;;;2.80;;
74245;SDS011;62601;51.044;13.788;2023-03-14T02:25:34;4.85;;;3.10;;
74245;SDS011;62601;51.044;13.788;2023-03-14T02:27:56;4.30;;;3.90;;
74245;SDS011;62601;51.044;13.788;2023-03-14T02:30:22;3.92;;;3.30;;
74245;SDS011;62601;51.044;13.788;2023-03-14T02:32:46;3.92;;;3.53;;
74245;SDS011;62601;51.044;13.788;2023-03-14T02:35:11;3.85;;;3.50;;
74245;SDS011;62601;51.044;13.788;2023-03-14T02:37:38;3.10;;;2.90;;
74245;SDS011;62601;51.044;13.788;2023-03-14T02:40:00;3.40;;;3.10;;
74245;SDS011;62601;51.044;13.788;2023-03-14T02:42:21;3.50;;;3.17;;
74245;SDS011;62601;51.044;13.788;2023-03-14T02:44:52;3.80;;;3.20;;
74245;SDS011;62601;51.044;13.788;2023-03-14T02:47:13;3.08;;;2.88;;
74245;SDS011;62601;51.044;13.788;2023-03-14T02:49:33;4.28;;;3.22;;
74245;SDS011;62601;51.044;13.788;2023-03-14T02:51:54;3.05;;;2.85;;
74245;SDS011;62601;51.044;13.788;2023-03-14T02:54:15;3.95;;;3.10;;
74245;SDS011;62601;51.044;13.788;2023-03-14T02:56:35;3.30;;;3.00;;
74245;SDS011;62601;51.044;13.788;2023-03-14T02:58:55;2.70;;;2.50;;
74245;SDS011;62601;51.044;13.788;2023-03-14T03:01:17;4.45;;;2.60;;
74245;SDS011;62601;51.044;13.788;2023-03-14T03:03:37;4.85;;;2.70;;
74245;SDS011;62601;51.044;13.788;2023-03-14T03:05:58;3.15;;;2.60;;
74245;SDS011;62601;51.044;13.788;2023-03-14T03:08:19;2.40;;;2.20;;
74245;SDS011;62601;51.044;13.788;2023-03-14T03:10:39;2.80;;;2.60;;
74245;SDS011;62601;51.044;13.788;2023-03-14T03:12:59;2.60;;;2.40;;
74245;SDS011;62601;51.044;13.788;2023-03-14T03:15:21;2.70;;;2.50;;
74245;SDS011;62601;51.044;13.788;2023-03-14T03:17:41;2.67;;;2.33;;
74245;SDS011;62601;51.044;13.788;2023-03-14T03:20:02;2.83;;;2.50;;
74245;SDS011;62601;51.044;13.788;2023-03-14T03:22:23;1.80;;;1.60;;
74245;SDS011;62601;51.044;13.788;2023-03-14T03:24:44;2.10;;;2.00;;
74245;SDS011;62601;51.044;13.788;2023-03-14T03:27:04;1.05;;;0.95;;
74245;SDS011;62601;51.044;13.788;2023-03-14T03:29:26;1.88;;;0.77;;
74245;SDS011;62601;51.044;13.788;2023-03-14T03:31:47;0.82;;;0.82;;
74245;SDS011;62601;51.044;13.788;2023-03-14T03:34:07;1.20;;;1.10;;
74245;SDS011;62601;51.044;13.788;2023-03-14T03:36:27;1.40;;;1.30;;
74245;SDS011;62601;51.044;13.788;2023-03-14T03:38:47;1.00;;;0.90;;
74245;SDS011;62601;51.044;13.788;2023-03-14T03:41:08;2.42;;;1.30;;
74245;SDS011;62601;51.044;13.788;2023-03-14T03:43:28;1.00;;;0.77;;
74245;SDS011;62601;51.044;13.788;2023-03-14T03:45:48;0.90;;;0.70;;
74245;SDS011;62601;51.044;13.788;2023-03-14T03:48:09;1.45;;;0.90;;
74245;SDS011;62601;51.044;13.788;2023-03-14T03:50:30;0.52;;;0.52;;
74245;SDS011;62601;51.044;13.788;2023-03-14T03:52:51;0.85;;;0.73;;
74245;SDS011;62601;51.044;13.788;2023-03-14T03:55:13;0.70;;;0.70;;
74245;SDS011;62601;51.044;13.788;2023-03-14T03:57:33;1.17;;;0.93;;
74245;SDS011;62601;51.044;13.788;2023-03-14T03:59:53;1.38;;;0.60;;
74245;SDS011;62601;51.044;13.788;2023-03-14T04:02:13;1.25;;;1.08;;
74245;SDS011;62601;51.044;13.788;2023-03-14T04:04:33;1.88;;;1.42;;
74245;SDS011;62601;51.044;13.788;2023-03-14T04:06:53;0.90;;;0.75;;
74245;SDS011;62601;51.044;13.788;2023-03-14T04:09:13;1.27;;;1.00;;
74245;SDS011;62601;51.044;13.788;2023-03-14T04:11:34;1.00;;;0.90;;
74245;SDS011;62601;51.044;13.788;2023-03-14T04:13:55;0.80;;;0.60;;
74245;SDS011;62601;51.044;13.788;2023-03-14T04:16:20;3.47;;;2.83;;
74245;SDS011;62601;51.044;13.788;2023-03-14T04:18:42;2.92;;;1.65;;
74245;SDS011;62601;51.044;13.788;2023-03-14T04:21:02;1.63;;;0.90;;
74245;SDS011;62601;51.044;13.788;2023-03-14T04:23:22;2.67;;;1.60;;
74245;SDS011;62601;51.044;13.788;2023-03-14T04:25:43;1.48;;;0.85;;
74245;SDS011;62601;51.044;13.788;2023-03-14T04:28:03;1.17;;;1.08;;
74245;SDS011;62601;51.044;13.788;2023-03-14T04:30:24;0.50;;;0.45;;
74245;SDS011;62601;51.044;13.788;2023-03-14T04:32:44;0.60;;;0.50;;
74245;SDS011;62601;51.044;13.788;2023-03-14T04:35:04;0.75;;;0.50;;
74245;SDS011;62601;51.044;13.788;2023-03-14T04:37:26;1.50;;;1.40;;
74245;SDS011;62601;51.044;13.788;2023-03-14T04:39:46;1.65;;;1.17;;
74245;SDS011;62601;51.044;13.788;2023-03-14T04:42:06;0.98;;;0.80;;
74245;SDS011;62601;51.044;13.788;2023-03-14T04:44:26;1.58;;;0.50;;
74245;SDS011;62601;51.044;13.788;2023-03-14T04:46:48;0.63;;;0.60;;
74245;SDS011;62601;51.044;13.788;2023-03-14T04:49:08;0.50;;;0.50;;
74245;SDS011;62601;51.044;13.788;2023-03-14T04:51:28;1.48;;;0.90;;
74245;SDS011;62601;51.044;13.788;2023-03-14T04:53:48;1.00;;;0.70;;
74245;SDS011;62601;51.044;13.788;2023-03-14T04:56:08;1.50;;;0.80;;
74245;SDS011;62601;51.044;13.788;2023-03-14T04:58:30;1.52;;;0.50;;
74245;SDS011;62601;51.044;13.788;2023-03-14T05:00:50;0.57;;;0.47;;
74245;SDS011;62601;51.044;13.788;2023-03-14T05:03:12;0.98;;;0.70;;
74245;SDS011;62601;51.044;13.788;2023-03-14T05:05:32;1.13;;;0.80;;
74245;SDS011;62601;51.044;13.788;2023-03-14T05:07:53;1.10;;;0.63;;
74245;SDS011;62601;51.044;13.788;2023-03-14T05:10:13;0.88;;;0.50;;
74245;SDS011;62601;51.044;13.788;2023-03-14T05:12:35;1.70;;;0.63;;
74245;SDS011;62601;51.044;13.788;2023-03-14T05:14:55;2.03;;;0.65;;
74245;SDS011;62601;51.044;13.788;2023-03-14T05:17:15;3.45;;;0.70;;
74245;SDS011;62601;51.044;13.788;2023-03-14T05:19:35;2.00;;;0.57;;
74245;SDS011;62601;51.044;13.788;2023-03-14T05:21:56;2.65;;;0.63;;
74245;SDS011;62601;51.044;13.788;2023-03-14T05:24:16;4.53;;;1.55;;
74245;SDS011;62601;51.044;13.788;2023-03-14T05:26:38;0.60;;;0.60;;
74245;SDS011;62601;51.044;13.788;2023-03-14T05:28:58;2.70;;;2.00;;
74245;SDS011;62601;51.044;13.788;2023-03-14T05:31:20;2.63;;;0.80;;
74245;SDS011;62601;51.044;13.788;2023-03-14T05:33:41;3.33;;;1.15;;
74245;SDS011;62601;51.044;13.788;2023-03-14T05:36:03;2.50;;;0.73;;
74245;SDS011;62601;51.044;13.788;2023-03-14T05:38:23;1.85;;;1.08;;
74245;SDS011;62601;51.044;13.788;2023-03-14T05:40:44;3.47;;;0.68;;
74245;SDS011;62601;51.044;13.788;2023-03-14T05:43:04;3.28;;;1.00;;
74245;SDS011;62601;51.044;13.788;2023-03-14T05:45:26;2.08;;;0.82;;
74245;SDS011;62601;51.044;13.788;2023-03-14T05:47:47;1.23;;;0.85;;
74245;SDS011;62601;51.044;13.788;2023-03-14T05:50:07;1.60;;;0.88;;
74245;SDS011;62601;51.044;13.788;2023-03-14T05:52:28;2.75;;;1.02;;
74245;SDS011;62601;51.044;13.788;2023-03-14T05:54:48;2.20;;;1.50;;
74245;SDS011;62601;51.044;13.788;2023-03-14T05:57:08;3.53;;;1.20;;
74245;SDS011;62601;51.044;13.788;2023-03-14T05:59:29;2.13;;;1.27;;
74245;SDS011;62601;51.044;13.788;2023-03-14T06:01:49;4.63;;;1.10;;
74245;SDS011;62601;51.044;13.788;2023-03-14T06:04:09;4.90;;;1.15;;
74245;SDS011;62601;51.044;13.788;2023-03-14T06:06:29;2.95;;;1.00;;
74245;SDS011;62601;51.044;13.788;2023-03-14T06:08:51;4.13;;;1.73;;
74245;SDS011;62601;51.044;13.788;2023-03-14T06:11:11;2.38;;;0.90;;
74245;SDS011;62601;51.044;13.788;2023-03-14T06:13:32;1.70;;;1.23;;
74245;SDS011;62601;51.044;13.788;2023-03-14T06:15:52;5.47;;;1.92;;
74245;SDS011;62601;51.044;13.788;2023-03-14T06:18:12;4.57;;;2.22;;
74245;SDS011;62601;51.044;13.788;2023-03-14T06:20:37;4.05;;;1.58;;
74245;SDS011;62601;51.044;13.788;2023-03-14T06:22:57;2.28;;;1.10;;
74245;SDS011;62601;51.044;13.788;2023-03-14T06:25:17;3.28;;;1.10;;
74245;SDS011;62601;51.044;13.788;2023-03-14T06:27:38;3.15;;;1.05;;
74245;SDS011;62601;51.044;13.788;2023-03-14T06:29:59;2.08;;;0.90;;
74245;SDS011;62601;51.044;13.788;2023-03-14T06:32:21;3.08;;;1.25;;
74245;SDS011;62601;51.044;13.788;2023-03-14T06:34:41;1.98;;;0.90;;
74245;SDS011;62601;51.044;13.788;2023-03-14T06:37:01;2.72;;;0.90;;
74245;SDS011;62601;51.044;13.788;2023-03-14T06:39:21;4.13;;;0.93;;
74245;SDS011;62601;51.044;13.788;2023-03-14T06:41:41;3.13;;;1.05;;
74245;SDS011;62601;51.044;13.788;2023-03-14T06:44:01;2.85;;;1.05;;
74245;SDS011;62601;51.044;13.788;2023-03-14T06:46:22;6.57;;;1.13;;
74245;SDS011;62601;51.044;13.788;2023-03-14T06:48:42;7.15;;;1.85;;
74245;SDS011;62601;51.044;13.788;2023-03-14T06:51:03;3.30;;;1.30;;
74245;SDS011;62601;51.044;13.788;2023-03-14T06:53:24;4.32;;;1.10;;
74245;SDS011;62601;51.044;13.788;2023-03-14T06:55:46;4.43;;;1.30;;
74245;SDS011;62601;51.044;13.788;2023-03-14T06:58:07;2.15;;;1.15;;
74245;SDS011;62601;51.044;13.788;2023-03-14T07:00:27;3.72;;;1.50;;
74245;SDS011;62601;51.044;13.788;2023-03-14T07:02:47;3.65;;;1.88;;
74245;SDS011;62601;51.044;13.788;2023-03-14T07:05:09;2.50;;;1.40;;
74245;SDS011;62601;51.044;13.788;2023-03-14T07:07:29;9.50;;;6.20;;
74245;SDS011;62601;51.044;13.788;2023-03-14T07:09:49;6.25;;;1.70;;
74245;SDS011;62601;51.044;13.788;2023-03-14T07:12:09;4.47;;;1.17;;
74245;SDS011;62601;51.044;13.788;2023-03-14T07:14:29;4.80;;;1.15;;
74245;SDS011;62601;51.044;13.788;2023-03-14T07:16:51;3.78;;;1.48;;
74245;SDS011;62601;51.044;13.788;2023-03-14T07:19:11;4.55;;;1.80;;
74245;SDS011;62601;51.044;13.788;2023-03-14T07:21:31;2.47;;;1.35;;
74245;SDS011;62601;51.044;13.788;2023-03-14T07:23:51;2.38;;;1.15;;
74245;SDS011;62601;51.044;13.788;2023-03-14T07:26:13;3.92;;;1.48;;
74245;SDS011;62601;51.044;13.788;2023-03-14T07:28:33;4.97;;;3.13;;
74245;SDS011;62601;51.044;13.788;2023-03-14T07:30:54;7.45;;;3.28;;
74245;SDS011;62601;51.044;13.788;2023-03-14T07:33:15;5.72;;;3.42;;
74245;SDS011;62601;51.044;13.788;2023-03-14T07:35:37;4.20;;;1.50;;
74245;SDS011;62601;51.044;13.788;2023-03-14T07:37:57;5.20;;;1.70;;
74245;SDS011;62601;51.044;13.788;2023-03-14T07:40:18;4.72;;;1.67;;
74245;SDS011;62601;51.044;13.788;2023-03-14T07:42:38;3.13;;;1.48;;
74245;SDS011;62601;51.044;13.788;2023-03-14T07:45:00;4.40;;;1.90;;
74245;SDS011;62601;51.044;13.788;2023-03-14T07:47:20;10.30;;;5.18;;
74245;SDS011;62601;51.044;13.788;2023-03-14T07:49:40;6.75;;;3.40;;
74245;SDS011;62601;51.044;13.788;2023-03-14T07:52:00;6.03;;;4.25;;
74245;SDS011;62601;51.044;13.788;2023-03-14T07:54:21;5.30;;;2.08;;
74245;SDS011;62601;51.044;13.788;2023-03-14T07:56:41;2.83;;;1.83;;
74245;SDS011;62601;51.044;13.788;2023-03-14T07:59:02;3.33;;;1.40;;
74245;SDS011;62601;51.044;13.788;2023-03-14T08:01:22;1.90;;;1.20;;
74245;SDS011;62601;51.044;13.788;2023-03-14T08:03:43;2.05;;;1.27;;
74245;SDS011;62601;51.044;13.788;2023-03-14T08:06:03;4.60;;;1.40;;
74245;SDS011;62601;51.044;13.788;2023-03-14T08:08:25;2.72;;;1.50;;
74245;SDS011;62601;51.044;13.788;2023-03-14T08:10:45;1.70;;;1.00;;
74245;SDS011;62601;51.044;13.788;2023-03-14T08:13:07;3.78;;;1.40;;
74245;SDS011;62601;51.044;13.788;2023-03-14T08:15:29;2.75;;;1.10;;
74245;SDS011;62601;51.044;13.788;2023-03-14T08:17:49;2.03;;;1.60;;
74245;SDS011;62601;51.044;13.788;2023-03-14T08:20:10;3.25;;;1.25;;
74245;SDS011;62601;51.044;13.788;2023-03-14T08:22:31;1.35;;;0.80;;
74245;SDS011;62601;51.044;13.788;2023-03-14T08:24:51;3.05;;;1.30;;
74245;SDS011;62601;51.044;13.788;2023-03-14T08:27:13;2.65;;;1.35;;
74245;SDS011;62601;51.044;13.788;2023-03-14T08:29:33;4.50;;;1.70;;
74245;SDS011;62601;51.044;13.788;2023-03-14T08:31:54;1.90;;;1.10;;
74245;SDS011;62601;51.044;13.788;2023-03-14T08:34:14;4.70;;;1.25;;
74245;SDS011;62601;51.044;13.788;2023-03-14T08:36:34;1.73;;;0.73;;
74245;SDS011;62601;51.044;13.788;2023-03-14T08:38:55;1.70;;;0.80;;
74245;SDS011;62601;51.044;13.788;2023-03-14T08:41:15;2.67;;;1.17;;
74245;SDS011;62601;51.044;13.788;2023-03-14T08:43:35;1.30;;;1.00;;
74245;SDS011;62601;51.044;13.788;2023-03-14T08:45:58;1.67;;;0.80;;
74245;SDS011;62601;51.044;13.788;2023-03-14T08:48:19;3.00;;;1.02;;
74245;SDS011;62601;51.044;13.788;2023-03-14T08:50:41;2.45;;;0.98;;
74245;SDS011;62601;51.044;13.788;2023-03-14T08:53:02;2.30;;;0.63;;
74245;SDS011;62601;51.044;13.788;2023-03-14T08:55:22;1.80;;;0.70;;
74245;SDS011;62601;51.044;13.788;2023-03-14T08:57:43;3.50;;;0.85;;
74245;SDS011;62601;51.044;13.788;2023-03-14T09:00:04;1.92;;;0.90;;
74245;SDS011;62601;51.044;13.788;2023-03-14T09:02:26;1.40;;;0.70;;
74245;SDS011;62601;51.044;13.788;2023-03-14T09:04:46;3.63;;;0.88;;
74245;SDS011;62601;51.044;13.788;2023-03-14T09:07:07;2.15;;;0.93;;
74245;SDS011;62601;51.044;13.788;2023-03-14T09:09:27;1.60;;;0.85;;
74245;SDS011;62601;51.044;13.788;2023-03-14T09:11:48;2.15;;;0.85;;
74245;SDS011;62601;51.044;13.788;2023-03-14T09:14:09;2.20;;;0.80;;
74245;SDS011;62601;51.044;13.788;2023-03-14T09:16:30;1.73;;;0.88;;
74245;SDS011;62601;51.044;13.788;2023-03-14T09:18:52;3.83;;;1.10;;
74245;SDS011;62601;51.044;13.788;2023-03-14T09:21:13;2.60;;;1.00;;
74245;SDS011;62601;51.044;13.788;2023-03-14T09:23:33;0.95;;;0.65;;
74245;SDS011;62601;51.044;13.788;2023-03-14T09:25:54;1.48;;;1.00;;
74245;SDS011;62601;51.044;13.788;2023-03-14T09:28:14;2.47;;;0.77;;
74245;SDS011;62601;51.044;13.788;2023-03-14T09:30:35;3.03;;;1.05;;
74245;SDS011;62601;51.044;13.788;2023-03-14T09:32:55;1.00;;;0.88;;
74245;SDS011;62601;51.044;13.788;2023-03-14T09:35:17;1.38;;;0.95;;
74245;SDS011;62601;51.044;13.788;2023-03-14T09:37:37;1.95;;;0.82;;
74245;SDS011;62601;51.044;13.788;2023-03-14T09:39:58;4.55;;;1.33;;
74245;SDS011;62601;51.044;13.788;2023-03-14T09:42:21;3.17;;;1.15;;
74245;SDS011;62601;51.044;13.788;2023-03-14T09:44:56;1.63;;;0.70;;
74245;SDS011;62601;51.044;13.788;2023-03-14T09:47:17;4.63;;;2.97;;
74245;SDS011;62601;51.044;13.788;2023-03-14T09:49:39;1.85;;;1.23;;
74245;SDS011;62601;51.044;13.788;2023-03-14T09:52:02;1.10;;;0.70;;
74245;SDS011;62601;51.044;13.788;2023-03-14T09:56:46;1.00;;;0.90;;
74245;SDS011;62601;51.044;13.788;2023-03-14T09:59:08;2.28;;;0.85;;
74245;SDS011;62601;51.044;13.788;2023-03-14T10:01:33;0.80;;;0.80;;
74245;SDS011;62601;51.044;13.788;2023-03-14T10:04:00;1.02;;;0.85;;
74245;SDS011;62601;51.044;13.788;2023-03-14T10:06:30;1.63;;;0.70;;
74245;SDS011;62601;51.044;13.788;2023-03-14T10:08:51;1.45;;;0.80;;
74245;SDS011;62601;51.044;13.788;2023-03-14T10:11:15;1.80;;;0.60;;
74245;SDS011;62601;51.044;13.788;2023-03-14T10:13:36;1.40;;;0.90;;
74245;SDS011;62601;51.044;13.788;2023-03-14T10:16:07;1.40;;;0.80;;
74245;SDS011;62601;51.044;13.788;2023-03-14T10:18:30;0.65;;;0.60;;
74245;SDS011;62601;51.044;13.788;2023-03-14T10:21:38;2.15;;;0.73;;
74245;SDS011;62601;51.044;13.788;2023-03-14T10:23:33;1.40;;;1.30;;
74245;SDS011;62601;51.044;13.788;2023-03-14T10:25:58;1.85;;;0.70;;
74245;SDS011;62601;51.044;13.788;2023-03-14T10:28:24;1.42;;;0.80;;
74245;SDS011;62601;51.044;13.788;2023-03-14T10:30:45;1.33;;;0.82;;
74245;SDS011;62601;51.044;13.788;2023-03-14T10:35:57;0.93;;;0.60;;
74245;SDS011;62601;51.044;13.788;2023-03-14T10:38:18;1.13;;;0.80;;
74245;SDS011;62601;51.044;13.788;2023-03-14T10:40:40;1.85;;;0.70;;
74245;SDS011;62601;51.044;13.788;2023-03-14T10:43:02;0.95;;;0.90;;
74245;SDS011;62601;51.044;13.788;2023-03-14T10:45:34;2.63;;;1.15;;
74245;SDS011;62601;51.044;13.788;2023-03-14T10:47:57;0.90;;;0.60;;
74245;SDS011;62601;51.044;13.788;2023-03-14T10:50:28;1.20;;;0.70;;
74245;SDS011;62601;51.044;13.788;2023-03-14T10:52:51;2.20;;;0.80;;
74245;SDS011;62601;51.044;13.788;2023-03-14T10:55:12;1.02;;;0.80;;
74245;SDS011;62601;51.044;13.788;2023-03-14T10:57:32;1.73;;;0.80;;
74245;SDS011;62601;51.044;13.788;2023-03-14T10:59:57;3.20;;;0.70;;
74245;SDS011;62601;51.044;13.788;2023-03-14T11:05:01;4.28;;;3.55;;
74245;SDS011;62601;51.044;13.788;2023-03-14T11:07:27;2.55;;;1.20;;
74245;SDS011;62601;51.044;13.788;2023-03-14T11:12:48;1.95;;;1.05;;
74245;SDS011;62601;51.044;13.788;2023-03-14T11:15:31;1.67;;;0.85;;
74245;SDS011;62601;51.044;13.788;2023-03-14T11:20:57;1.42;;;0.88;;
74245;SDS011;62601;51.044;13.788;2023-03-14T11:23:02;1.30;;;0.73;;
74245;SDS011;62601;51.044;13.788;2023-03-14T11:25:31;1.95;;;0.80;;
74245;SDS011;62601;51.044;13.788;2023-03-14T11:27:58;2.08;;;0.85;;
74245;SDS011;62601;51.044;13.788;2023-03-14T11:33:28;1.17;;;0.80;;
74245;SDS011;62601;51.044;13.788;2023-03-14T11:36:06;1.30;;;0.80;;
74245;SDS011;62601;51.044;13.788;2023-03-14T11:40:56;1.52;;;0.70;;
74245;SDS011;62601;51.044;13.788;2023-03-14T11:43:37;2.65;;;0.60;;
74245;SDS011;62601;51.044;13.788;2023-03-14T11:46:01;1.45;;;0.60;;
74245;SDS011;62601;51.044;13.788;2023-03-14T11:48:30;0.75;;;0.63;;
74245;SDS011;62601;51.044;13.788;2023-03-14T11:50:54;2.33;;;1.27;;
74245;SDS011;62601;51.044;13.788;2023-03-14T11:53:16;1.55;;;0.80;;
74245;SDS011;62601;51.044;13.788;2023-03-14T11:55:39;1.40;;;0.70;;
74245;SDS011;62601;51.044;13.788;2023-03-14T11:58:03;1.05;;;0.50;;
74245;SDS011;62601;51.044;13.788;2023-03-14T12:00:28;0.70;;;0.60;;
74245;SDS011;62601;51.044;13.788;2023-03-14T12:03:03;1.05;;;0.60;;
74245;SDS011;62601;51.044;13.788;2023-03-14T12:10:21;1.80;;;0.73;;
74245;SDS011;62601;51.044;13.788;2023-03-14T12:12:41;1.53;;;0.50;;
74245;SDS011;62601;51.044;13.788;2023-03-14T12:15:03;1.63;;;0.80;;
74245;SDS011;62601;51.044;13.788;2023-03-14T12:17:37;1.65;;;0.60;;
74245;SDS011;62601;51.044;13.788;2023-03-14T12:20:31;1.00;;;0.63;;
74245;SDS011;62601;51.044;13.788;2023-03-14T12:22:49;1.57;;;0.50;;
74245;SDS011;62601;51.044;13.788;2023-03-14T12:27:46;1.53;;;0.87;;
74245;SDS011;62601;51.044;13.788;2023-03-14T12:30:27;1.20;;;0.80;;
74245;SDS011;62601;51.044;13.788;2023-03-14T12:35:34;2.43;;;0.70;;
74245;SDS011;62601;51.044;13.788;2023-03-14T12:37:55;0.70;;;0.50;;
74245;SDS011;62601;51.044;13.788;2023-03-14T12:40:31;1.17;;;0.67;;
74245;SDS011;62601;51.044;13.788;2023-03-14T12:42:58;0.60;;;0.43;;
74245;SDS011;62601;51.044;13.788;2023-03-14T12:45:27;1.10;;;0.50;;
74245;SDS011;62601;51.044;13.788;2023-03-14T12:47:55;1.00;;;0.70;;
74245;SDS011;62601;51.044;13.788;2023-03-14T12:50:18;0.60;;;0.57;;
74245;SDS011;62601;51.044;13.788;2023-03-14T12:53:02;0.70;;;0.60;;
74245;SDS011;62601;51.044;13.788;2023-03-14T12:55:39;1.43;;;0.60;;
74245;SDS011;62601;51.044;13.788;2023-03-14T12:58:20;0.93;;;0.60;;
74245;SDS011;62601;51.044;13.788;2023-03-14T13:00:51;0.50;;;0.40;;
74245;SDS011;62601;51.044;13.788;2023-03-14T13:03:21;1.30;;;0.57;;
74245;SDS011;62601;51.044;13.788;2023-03-14T13:05:52;0.83;;;0.47;;
74245;SDS011;62601;51.044;13.788;2023-03-14T13:08:13;1.50;;;0.53;;
74245;SDS011;62601;51.044;13.788;2023-03-14T13:10:51;1.07;;;0.50;;
74245;SDS011;62601;51.044;13.788;2023-03-14T13:13:22;0.60;;;0.50;;
74245;SDS011;62601;51.044;13.788;2023-03-14T13:15:45;0.70;;;0.60;;
74245;SDS011;62601;51.044;13.788;2023-03-14T13:18:10;0.60;;;0.50;;
74245;SDS011;62601;51.044;13.788;2023-03-14T13:20:35;1.10;;;0.60;;
74245;SDS011;62601;51.044;13.788;2023-03-14T13:22:56;0.50;;;0.43;;
74245;SDS011;62601;51.044;13.788;2023-03-14T13:25:17;1.10;;;0.50;;
74245;SDS011;62601;51.044;13.788;2023-03-14T13:27:37;0.77;;;0.60;;
74245;SDS011;62601;51.044;13.788;2023-03-14T13:29:58;0.70;;;0.60;;
74245;SDS011;62601;51.044;13.788;2023-03-14T13:32:27;0.53;;;0.50;;
74245;SDS011;62601;51.044;13.788;2023-03-14T13:34:48;0.70;;;0.57;;
74245;SDS011;62601;51.044;13.788;2023-03-14T13:37:21;0.50;;;0.50;;
74245;SDS011;62601;51.044;13.788;2023-03-14T13:39:41;0.80;;;0.60;;
74245;SDS011;62601;51.044;13.788;2023-03-14T13:42:03;0.50;;;0.50;;
74245;SDS011;62601;51.044;13.788;2023-03-14T13:44:25;0.90;;;0.50;;
74245;SDS011;62601;51.044;13.788;2023-03-14T13:46:47;0.70;;;0.60;;
74245;SDS011;62601;51.044;13.788;2023-03-14T13:49:18;0.70;;;0.70;;
74245;SDS011;62601;51.044;13.788;2023-03-14T13:51:41;0.80;;;0.60;;
74245;SDS011;62601;51.044;13.788;2023-03-14T13:54:01;1.30;;;1.20;;
74245;SDS011;62601;51.044;13.788;2023-03-14T13:56:24;0.60;;;0.50;;
74245;SDS011;62601;51.044;13.788;2023-03-14T13:58:44;0.50;;;0.40;;
74245;SDS011;62601;51.044;13.788;2023-03-14T14:01:06;0.60;;;0.50;;
74245;SDS011;62601;51.044;13.788;2023-03-14T14:03:31;0.60;;;0.53;;
74245;SDS011;62601;51.044;13.788;2023-03-14T14:05:53;0.80;;;0.50;;
74245;SDS011;62601;51.044;13.788;2023-03-14T14:08:15;0.50;;;0.40;;
74245;SDS011;62601;51.044;13.788;2023-03-14T14:10:36;0.70;;;0.50;;
74245;SDS011;62601;51.044;13.788;2023-03-14T14:13:00;2.03;;;0.40;;
74245;SDS011;62601;51.044;13.788;2023-03-14T14:15:23;0.50;;;0.50;;
74245;SDS011;62601;51.044;13.788;2023-03-14T14:17:46;0.80;;;0.63;;
74245;SDS011;62601;51.044;13.788;2023-03-14T14:20:32;0.60;;;0.50;;
74245;SDS011;62601;51.044;13.788;2023-03-14T14:22:50;0.70;;;0.50;;
74245;SDS011;62601;51.044;13.788;2023-03-14T14:25:13;3.07;;;0.40;;
74245;SDS011;62601;51.044;13.788;2023-03-14T14:27:35;0.50;;;0.40;;
74245;SDS011;62601;51.044;13.788;2023-03-14T14:29:57;0.60;;;0.50;;
74245;SDS011;62601;51.044;13.788;2023-03-14T14:32:17;0.67;;;0.53;;
74245;SDS011;62601;51.044;13.788;2023-03-14T14:34:38;0.60;;;0.60;;
74245;SDS011;62601;51.044;13.788;2023-03-14T14:37:00;0.60;;;0.50;;
74245;SDS011;62601;51.044;13.788;2023-03-14T14:39:24;0.60;;;0.50;;